Weather History for Luverne, MN

Change the Weather History Date:

Saturday, February 9, 2013

  Actual Average (KFSD) Record (KFSD)
Temperature  
Mean Temperature 35 °F 20 °F  
Max Temperature 42 °F 30 °F 58 °F (1977)
Min Temperature 28 °F 10 °F -42 °F (1899)
Degree Days  
Heating Degree Days 30 45  
Month to date heating degree days 417  
Since 1 July heating degree days 5049  
Cooling Degree Days 0 0  
Month to date cooling degree days 0  
Year to date cooling degree days 0  
Moisture  
Dew Point 29 °F    
Average Humidity 84    
Maximum Humidity 93    
Minimum Humidity 66    
Precipitation  
Precipitation 0.00 in 0.02 in 1.50 in (1909)
Month to date precipitation 0.16  
Year to date precipitation 0.72  
Snow  
Snow 0.00 in 0.20 in 15.00 in (1909)
Month to date snowfall 2.2  
Since 1 July snowfall 26.8  
Snow Depth -    
Sea Level Pressure  
Sea Level Pressure 29.89 in    
Wind  
Wind Speed 14 mph (SSE)    
Max Wind Speed 20 mph    
Max Gust Speed 28 mph    
Visibility 6 miles    
Events Rain    
T = Trace of Precipitation, MM = Missing Value Source: NWS Daily Summary

Daily Weather History Graph

Daily Weather History Graph

Search for Another Location

Airport:

Trip Planner

Search our weather history database for the weather conditions in past years. The results will help you decide how hot, cold, wet, or windy it might be!

Date:

Astronomy

Feb. 09, 2013 Rise Set
Actual Time 7:31 AM CST 5:47 PM CST
Civil Twilight 7:01 AM CST 6:17 PM CST
Nautical Twilight 6:27 AM CST 6:51 PM CST
Astronomical Twilight 5:54 AM CST 7:24 PM CST
Moon 6:43 AM CST (2/9) 5:32 PM CST (2/9)
Length of Visible Light 11h 15m
Length of Day
10h 16m
Waning Crescent, 0% of the Moon is Illuminated
Feb 9
Waning Crescent
Feb 10
New
Feb 17
First Quarter
Feb 25
Full
Mar 4
Last Quarter

Hourly Weather History & Observations

Time (CST) Temp. Windchill Dew Point Humidity Pressure Visibility Wind Dir Wind Speed Gust Speed Precip Events Conditions
12:16 AM 28.4 °F 16.6 °F 24.8 °F 86% 30.07 in 7.0 mi SSE 16.1 mph 20.7 mph N/A   Overcast
12:36 AM 28.4 °F 17.5 °F 24.8 °F 86% 30.08 in 7.0 mi South 13.8 mph 19.6 mph N/A   Overcast
12:56 AM 28.4 °F 17.0 °F 24.8 °F 86% 30.07 in 7.0 mi SSE 15.0 mph 20.7 mph N/A   Overcast
1:16 AM 28.4 °F 17.0 °F 24.8 °F 86% 30.06 in 7.0 mi SSE 15.0 mph - N/A   Overcast
1:36 AM 28.4 °F 17.5 °F 26.6 °F 93% 30.06 in 7.0 mi South 13.8 mph 20.7 mph N/A   Overcast
1:56 AM 28.4 °F 16.2 °F 26.6 °F 93% 30.05 in 7.0 mi SSE 17.3 mph 25.3 mph N/A   Overcast
2:16 AM 28.4 °F 17.0 °F 26.6 °F 93% 30.05 in 7.0 mi SSE 15.0 mph 21.9 mph N/A   Overcast
2:36 AM 28.4 °F 17.0 °F 26.6 °F 93% 30.04 in 5.0 mi South 15.0 mph 21.9 mph N/A   Overcast
2:56 AM 28.4 °F 16.6 °F 26.6 °F 93% 30.03 in 5.0 mi South 16.1 mph 21.9 mph N/A   Overcast
3:16 AM 30.2 °F 18.1 °F 26.6 °F 86% 30.02 in 5.0 mi South 18.4 mph - N/A   Overcast
3:36 AM 30.2 °F 18.1 °F 26.6 °F 86% 30.01 in 4.0 mi South 18.4 mph 25.3 mph N/A   Overcast
3:56 AM 30.2 °F 17.8 °F 26.6 °F 86% 29.99 in 4.0 mi South 19.6 mph 27.6 mph N/A   Overcast
4:16 AM 30.2 °F 18.1 °F 26.6 °F 86% 30.00 in 4.0 mi South 18.4 mph 26.5 mph N/A   Overcast
4:36 AM 30.2 °F 18.9 °F 26.6 °F 86% 29.99 in 4.0 mi South 16.1 mph 24.2 mph N/A   Overcast
4:56 AM 30.2 °F 18.5 °F 26.6 °F 86% 29.99 in 4.0 mi South 17.3 mph 24.2 mph N/A   Overcast
5:17 AM 30.2 °F 18.5 °F 26.6 °F 86% 29.99 in 4.0 mi South 17.3 mph 23.0 mph N/A   Overcast
5:36 AM 30.2 °F 17.8 °F 26.6 °F 86% 29.98 in 4.0 mi South 19.6 mph 25.3 mph N/A   Overcast
5:56 AM 30.2 °F 18.5 °F 26.6 °F 86% 29.98 in 4.0 mi South 17.3 mph 25.3 mph N/A   Overcast
6:16 AM 30.2 °F 18.5 °F 26.6 °F 86% 29.98 in 5.0 mi South 17.3 mph 25.3 mph N/A   Overcast
6:36 AM 30.2 °F 19.8 °F 26.6 °F 86% 29.99 in 5.0 mi South 13.8 mph - N/A   Overcast
6:56 AM 30.2 °F 19.8 °F 26.6 °F 86% 29.99 in 5.0 mi South 13.8 mph - N/A   Overcast
7:16 AM 30.2 °F 19.8 °F 26.6 °F 86% 29.99 in 5.0 mi South 13.8 mph 21.9 mph N/A   Overcast
7:36 AM 28.4 °F 17.5 °F 26.6 °F 93% 29.99 in 5.0 mi South 13.8 mph 17.3 mph N/A   Overcast
7:56 AM 30.2 °F 20.2 °F 26.6 °F 86% 29.99 in 5.0 mi South 12.7 mph - N/A   Overcast
8:16 AM 30.2 °F 21.3 °F 26.6 °F 86% 29.99 in 4.0 mi South 10.4 mph - N/A   Overcast
8:36 AM 30.2 °F 20.8 °F 26.6 °F 86% 29.98 in 2.5 mi South 11.5 mph - N/A   Overcast
9:16 AM 30.2 °F 21.3 °F 28.4 °F 93% 29.97 in 2.0 mi South 10.4 mph - N/A   Overcast
9:36 AM 30.2 °F 21.3 °F 28.4 °F 93% 29.97 in 2.0 mi South 10.4 mph 16.1 mph N/A   Overcast
9:56 AM 32.0 °F 22.5 °F 28.4 °F 87% 29.97 in 2.0 mi South 12.7 mph - N/A   Overcast
10:16 AM 32.0 °F 23.6 °F 28.4 °F 87% 29.96 in 2.0 mi South 10.4 mph 17.3 mph N/A   Overcast
10:37 AM 32.0 °F 23.6 °F 28.4 °F 87% 29.96 in 2.0 mi South 10.4 mph - N/A   Overcast
10:56 AM 32.0 °F 23.6 °F 28.4 °F 87% 29.95 in 2.5 mi South 10.4 mph - N/A   Overcast
11:16 AM 32.0 °F 23.6 °F 30.2 °F 93% 29.94 in 2.5 mi South 10.4 mph - N/A   Overcast
11:37 AM 32.0 °F 23.6 °F 30.2 °F 93% 29.93 in 3.0 mi SSE 10.4 mph - N/A   Overcast
11:56 AM 32.0 °F 23.0 °F 30.2 °F 93% 29.92 in 3.0 mi South 11.5 mph - N/A   Overcast
12:16 PM 33.8 °F 24.8 °F 30.2 °F 87% 29.90 in 4.0 mi South 12.7 mph - N/A   Overcast
12:37 PM 33.8 °F 25.3 °F 30.2 °F 87% 29.89 in 4.0 mi South 11.5 mph - N/A   Haze
12:56 PM 35.6 °F 27.5 °F 30.2 °F 81% 29.88 in 5.0 mi South 11.5 mph - N/A   Haze
1:16 PM 37.4 °F 30.8 °F 32.0 °F 81% 29.87 in 5.0 mi South 9.2 mph - N/A   Haze
1:36 PM 39.2 °F 31.2 °F 32.0 °F 75% 29.86 in 7.0 mi South 13.8 mph 17.3 mph N/A   Mostly Cloudy
1:56 PM 41.0 °F 32.8 °F 32.0 °F 70% 29.85 in 7.0 mi South 16.1 mph 24.2 mph N/A   Scattered Clouds
2:16 PM 41.0 °F 33.1 °F 32.0 °F 70% 29.83 in 7.0 mi South 15.0 mph - N/A   Scattered Clouds
2:36 PM 42.8 °F 35.4 °F 32.0 °F 66% 29.81 in 10.0 mi South 15.0 mph - N/A   Clear
2:56 PM 42.8 °F 35.4 °F 32.0 °F 66% 29.80 in 7.0 mi South 15.0 mph - N/A   Clear
3:16 PM 42.8 °F 34.8 °F 32.0 °F 66% 29.80 in 7.0 mi South 17.3 mph - N/A   Clear
3:36 PM 42.8 °F 36.6 °F 32.0 °F 66% 29.79 in 10.0 mi South 11.5 mph 18.4 mph N/A   Clear
3:56 PM 42.8 °F 36.6 °F 32.0 °F 66% 29.78 in 10.0 mi South 11.5 mph - N/A   Clear
4:16 PM 42.8 °F 37.5 °F 32.0 °F 66% 29.78 in 10.0 mi South 9.2 mph - N/A   Clear
4:36 PM 42.8 °F 38.0 °F 32.0 °F 66% 29.77 in 10.0 mi SSE 8.1 mph - N/A   Clear
4:56 PM 42.8 °F 39.3 °F 32.0 °F 66% 29.76 in 10.0 mi SE 5.8 mph - N/A   Clear
5:16 PM 41.0 °F 37.1 °F 32.0 °F 70% 29.75 in 10.0 mi SE 5.8 mph - N/A   Clear
5:36 PM 37.4 °F 32.8 °F 32.0 °F 81% 29.77 in 7.0 mi SE 5.8 mph - N/A   Clear
5:56 PM 37.4 °F 31.4 °F 32.0 °F 81% 29.76 in 10.0 mi SSE 8.1 mph - N/A   Clear
6:16 PM 39.2 °F 34.2 °F 32.0 °F 75% 29.75 in 10.0 mi ESE 6.9 mph - N/A   Clear
6:36 PM 37.4 °F 32.1 °F 32.0 °F 81% 29.77 in 10.0 mi SSE 6.9 mph - N/A   Clear
6:56 PM 37.4 °F 31.4 °F 32.0 °F 81% 29.78 in 10.0 mi SE 8.1 mph - N/A   Clear
7:36 PM 35.6 °F 26.6 °F 32.0 °F 87% 29.77 in 7.0 mi SE 13.8 mph - N/A   Clear
7:56 PM 33.8 °F 24.3 °F 32.0 °F 93% 29.78 in 7.0 mi SE 13.8 mph 19.6 mph N/A   Clear
8:17 PM 33.8 °F 24.3 °F 32.0 °F 93% 29.78 in 7.0 mi SE 13.8 mph 18.4 mph N/A   Mostly Cloudy
8:36 PM 33.8 °F 24.8 °F 32.0 °F 93% 29.78 in 7.0 mi SE 12.7 mph 19.6 mph N/A   Mostly Cloudy
8:56 PM 33.8 °F 24.3 °F 32.0 °F 93% 29.77 in 7.0 mi SE 13.8 mph 19.6 mph N/A   Overcast
9:17 PM 33.8 °F 23.9 °F 30.2 °F 87% 29.77 in 5.0 mi SE 15.0 mph - N/A   Mostly Cloudy
9:36 PM 33.8 °F 24.8 °F 30.2 °F 87% 29.76 in 5.0 mi SE 12.7 mph - N/A   Overcast
9:56 PM 33.8 °F 25.8 °F 30.2 °F 87% 29.76 in 5.0 mi SE 10.4 mph - N/A   Overcast
10:17 PM 33.8 °F 24.8 °F 30.2 °F 87% 29.75 in 7.0 mi SE 12.7 mph 17.3 mph N/A   Overcast
10:36 PM 33.8 °F 24.8 °F 30.2 °F 87% 29.75 in 7.0 mi SE 12.7 mph 18.4 mph N/A   Overcast
10:56 PM 33.8 °F 23.9 °F 30.2 °F 87% 29.73 in 7.0 mi SE 15.0 mph - N/A   Overcast
11:16 PM 33.8 °F 23.9 °F 30.2 °F 87% 29.72 in 7.0 mi SE 15.0 mph 19.6 mph N/A   Overcast
11:36 PM 33.8 °F 23.5 °F 30.2 °F 87% 29.71 in 7.0 mi SE 16.1 mph 23.0 mph N/A   Overcast
11:56 PM 33.8 °F 23.5 °F 30.2 °F 87% 29.71 in 7.0 mi SE 16.1 mph 20.7 mph N/A Rain Light Rain